Terminal Aerodrome Forecast
Issued by NWS

Home | Current Version | Previous Version | Text Only | Print | Product List | Glossary On
Versions: 1 2 3 4 5 6 7 8 9 10 11 12 13 14
000
FTUS42 KGSP 241740 AAA
TAFHKY
TAF AMD
KHKY 241740Z 2418/2518 18004KT P6SM SKC
     FM250400 VRB02KT P6SM FEW250
     FM251600 24004KT P6SM SCT150=

USA.gov is the U.S. government's official web portal to all federal, state and local government web resources and services.